sensor_id;sensor_type;location;lat;lon;timestamp;pressure;altitude;pressure_sealevel;temperature;humidity
77325;BME280;66387;53.440;10.390;2023-05-07T00:02:24;101502.97;;;8.42;87.36
77325;BME280;66387;53.440;10.390;2023-05-07T00:04:50;101503.88;;;8.47;87.00
77325;BME280;66387;53.440;10.390;2023-05-07T00:07:17;101515.19;;;8.55;86.45
77325;BME280;66387;53.440;10.390;2023-05-07T00:09:42;101509.16;;;8.56;86.57
77325;BME280;66387;53.440;10.390;2023-05-07T00:12:07;101515.16;;;8.52;86.33
77325;BME280;66387;53.440;10.390;2023-05-07T00:14:33;101509.97;;;8.49;86.28
77325;BME280;66387;53.440;10.390;2023-05-07T00:16:58;101512.59;;;8.55;85.71
77325;BME280;66387;53.440;10.390;2023-05-07T00:19:23;101527.31;;;8.59;86.17
77325;BME280;66387;53.440;10.390;2023-05-07T00:21:49;101518.63;;;8.54;85.84
77325;BME280;66387;53.440;10.390;2023-05-07T00:24:14;101516.81;;;8.47;86.04
77325;BME280;66387;53.440;10.390;2023-05-07T00:26:39;101516.88;;;8.51;86.09
77325;BME280;66387;53.440;10.390;2023-05-07T00:29:04;101516.84;;;8.48;85.95
77325;BME280;66387;53.440;10.390;2023-05-07T00:31:30;101515.13;;;8.49;85.17
77325;BME280;66387;53.440;10.390;2023-05-07T00:33:55;101515.16;;;8.53;85.19
77325;BME280;66387;53.440;10.390;2023-05-07T00:36:20;101512.59;;;8.55;85.03
77325;BME280;66387;53.440;10.390;2023-05-07T00:38:45;101515.16;;;8.53;85.50
77325;BME280;66387;53.440;10.390;2023-05-07T00:41:11;101519.50;;;8.57;85.16
77325;BME280;66387;53.440;10.390;2023-05-07T00:43:36;101513.44;;;8.54;84.96
77325;BME280;66387;53.440;10.390;2023-05-07T00:46:02;101519.50;;;8.57;85.03
77325;BME280;66387;53.440;10.390;2023-05-07T00:48:27;101506.59;;;8.59;84.86
77325;BME280;66387;53.440;10.390;2023-05-07T00:50:53;101515.22;;;8.61;85.21
77325;BME280;66387;53.440;10.390;2023-05-07T00:53:18;101518.63;;;8.57;85.23
77325;BME280;66387;53.440;10.390;2023-05-07T00:55:44;101509.16;;;8.57;85.61
77325;BME280;66387;53.440;10.390;2023-05-07T00:58:09;101502.34;;;8.65;85.16
77325;BME280;66387;53.440;10.390;2023-05-07T01:00:34;101508.38;;;8.66;84.07
77325;BME280;66387;53.440;10.390;2023-05-07T01:03:01;101502.34;;;8.65;84.14
77325;BME280;66387;53.440;10.390;2023-05-07T01:05:27;101498.03;;;8.66;83.87
77325;BME280;66387;53.440;10.390;2023-05-07T01:07:54;101497.94;;;8.60;84.45
77325;BME280;66387;53.440;10.390;2023-05-07T01:10:20;101502.19;;;8.50;85.03
77325;BME280;66387;53.440;10.390;2023-05-07T01:12:47;101490.97;;;8.50;84.90
77325;BME280;66387;53.440;10.390;2023-05-07T01:15:14;101500.50;;;8.54;84.83
77325;BME280;66387;53.440;10.390;2023-05-07T01:17:41;101497.03;;;8.53;84.57
77325;BME280;66387;53.440;10.390;2023-05-07T01:20:07;101501.41;;;8.60;85.19
77325;BME280;66387;53.440;10.390;2023-05-07T01:22:34;101499.66;;;8.56;84.67
77325;BME280;66387;53.440;10.390;2023-05-07T01:24:59;101494.53;;;8.61;84.79
77325;BME280;66387;53.440;10.390;2023-05-07T01:27:26;101503.88;;;8.47;85.36
77325;BME280;66387;53.440;10.390;2023-05-07T01:29:51;101505.69;;;8.57;85.25
77325;BME280;66387;53.440;10.390;2023-05-07T01:32:19;101503.94;;;8.53;85.67
77325;BME280;66387;53.440;10.390;2023-05-07T01:34:48;101486.53;;;8.38;86.31
77325;BME280;66387;53.440;10.390;2023-05-07T01:37:14;101497.00;;;8.50;85.85
77325;BME280;66387;53.440;10.390;2023-05-07T01:39:40;101481.41;;;8.41;85.88
77325;BME280;66387;53.440;10.390;2023-05-07T01:42:05;101491.78;;;8.41;86.27
77325;BME280;66387;53.440;10.390;2023-05-07T01:44:30;101493.56;;;8.48;86.53
77325;BME280;66387;53.440;10.390;2023-05-07T01:46:57;101497.78;;;8.42;86.55
77325;BME280;66387;53.440;10.390;2023-05-07T01:49:22;101495.19;;;8.40;86.44
77325;BME280;66387;53.440;10.390;2023-05-07T01:51:47;101496.03;;;8.38;86.97
77325;BME280;66387;53.440;10.390;2023-05-07T01:54:13;101493.47;;;8.42;87.22
77325;BME280;66387;53.440;10.390;2023-05-07T01:56:39;101491.78;;;8.46;87.11
77325;BME280;66387;53.440;10.390;2023-05-07T01:59:04;101492.72;;;8.54;86.81
77325;BME280;66387;53.440;10.390;2023-05-07T02:01:30;101497.75;;;8.38;87.08
77325;BME280;66387;53.440;10.390;2023-05-07T02:03:55;101502.97;;;8.42;87.35
77325;BME280;66387;53.440;10.390;2023-05-07T02:06:21;101507.25;;;8.36;87.30
77325;BME280;66387;53.440;10.390;2023-05-07T02:08:46;101499.47;;;8.36;87.24
77325;BME280;66387;53.440;10.390;2023-05-07T02:11:12;101505.50;;;8.35;87.07
77325;BME280;66387;53.440;10.390;2023-05-07T02:13:37;101506.34;;;8.34;86.89
77325;BME280;66387;53.440;10.390;2023-05-07T02:16:03;101510.69;;;8.38;86.45
77325;BME280;66387;53.440;10.390;2023-05-07T02:18:28;101504.63;;;8.33;86.26
77325;BME280;66387;53.440;10.390;2023-05-07T02:20:56;101511.50;;;8.30;86.80
77325;BME280;66387;53.440;10.390;2023-05-07T02:23:22;101523.59;;;8.35;86.68
77325;BME280;66387;53.440;10.390;2023-05-07T02:25:47;101517.50;;;8.29;86.99
77325;BME280;66387;53.440;10.390;2023-05-07T02:28:13;101526.91;;;8.25;86.92
77325;BME280;66387;53.440;10.390;2023-05-07T02:30:38;101520.81;;;8.20;86.72
77325;BME280;66387;53.440;10.390;2023-05-07T02:33:03;101516.53;;;8.22;87.23
77325;BME280;66387;53.440;10.390;2023-05-07T02:35:28;101513.97;;;8.22;86.97
77325;BME280;66387;53.440;10.390;2023-05-07T02:37:54;101516.66;;;8.30;87.44
77325;BME280;66387;53.440;10.390;2023-05-07T02:40:19;101517.56;;;8.33;86.82
77325;BME280;66387;53.440;10.390;2023-05-07T02:42:45;101517.66;;;8.44;86.33
77325;BME280;66387;53.440;10.390;2023-05-07T02:45:10;101518.47;;;8.42;86.31
77325;BME280;66387;53.440;10.390;2023-05-07T02:47:35;101521.09;;;8.43;86.49
77325;BME280;66387;53.440;10.390;2023-05-07T02:50:01;101527.13;;;8.41;86.18
77325;BME280;66387;53.440;10.390;2023-05-07T02:52:26;101530.69;;;8.52;86.23
77325;BME280;66387;53.440;10.390;2023-05-07T02:54:52;101528.09;;;8.52;85.65
77325;BME280;66387;53.440;10.390;2023-05-07T02:57:17;101532.34;;;8.47;85.08
77325;BME280;66387;53.440;10.390;2023-05-07T02:59:42;101528.88;;;8.45;85.21
77325;BME280;66387;53.440;10.390;2023-05-07T03:02:07;101528.94;;;8.51;84.77
77325;BME280;66387;53.440;10.390;2023-05-07T03:04:33;101531.47;;;8.45;85.14
77325;BME280;66387;53.440;10.390;2023-05-07T03:06:58;101517.63;;;8.41;85.50
77325;BME280;66387;53.440;10.390;2023-05-07T03:09:23;101528.84;;;8.42;85.74
77325;BME280;66387;53.440;10.390;2023-05-07T03:11:49;101521.16;;;8.48;85.16
77325;BME280;66387;53.440;10.390;2023-05-07T03:14:14;101521.16;;;8.49;85.11
77325;BME280;66387;53.440;10.390;2023-05-07T03:16:39;101519.41;;;8.45;85.38
77325;BME280;66387;53.440;10.390;2023-05-07T03:19:05;101520.19;;;8.40;85.58
77325;BME280;66387;53.440;10.390;2023-05-07T03:21:30;101521.03;;;8.35;85.61
77325;BME280;66387;53.440;10.390;2023-05-07T03:23:58;101527.16;;;8.44;85.25
77325;BME280;66387;53.440;10.390;2023-05-07T03:26:23;101528.00;;;8.43;85.52
77325;BME280;66387;53.440;10.390;2023-05-07T03:28:49;101528.81;;;8.38;85.32
77325;BME280;66387;53.440;10.390;2023-05-07T03:31:14;101528.84;;;8.40;85.20
77325;BME280;66387;53.440;10.390;2023-05-07T03:33:53;101534.06;;;8.46;84.64
77325;BME280;66387;53.440;10.390;2023-05-07T03:36:18;101527.09;;;8.39;84.70
77325;BME280;66387;53.440;10.390;2023-05-07T03:38:43;101528.84;;;8.43;84.57
77325;BME280;66387;53.440;10.390;2023-05-07T03:41:09;101523.59;;;8.34;84.07
77325;BME280;66387;53.440;10.390;2023-05-07T03:43:34;101527.94;;;8.38;84.42
77325;BME280;66387;53.440;10.390;2023-05-07T03:46:00;101536.53;;;8.34;84.08
77325;BME280;66387;53.440;10.390;2023-05-07T03:48:25;101534.00;;;8.42;84.27
77325;BME280;66387;53.440;10.390;2023-05-07T03:50:51;101537.44;;;8.38;84.04
77325;BME280;66387;53.440;10.390;2023-05-07T03:53:16;101542.66;;;8.44;84.01
77325;BME280;66387;53.440;10.390;2023-05-07T03:55:42;101546.88;;;8.34;83.10
77325;BME280;66387;53.440;10.390;2023-05-07T03:58:07;101537.34;;;8.31;83.78
77325;BME280;66387;53.440;10.390;2023-05-07T04:00:32;101541.78;;;8.40;83.62
77325;BME280;66387;53.440;10.390;2023-05-07T04:03:02;101538.31;;;8.40;83.20
77325;BME280;66387;53.440;10.390;2023-05-07T04:05:28;101540.09;;;8.44;82.88
77325;BME280;66387;53.440;10.390;2023-05-07T04:07:54;101538.41;;;8.49;82.50
77325;BME280;66387;53.440;10.390;2023-05-07T04:10:19;101536.66;;;8.49;82.19
77325;BME280;66387;53.440;10.390;2023-05-07T04:12:44;101542.69;;;8.47;82.74
77325;BME280;66387;53.440;10.390;2023-05-07T04:15:10;101542.75;;;8.53;82.62
77325;BME280;66387;53.440;10.390;2023-05-07T04:17:35;101546.19;;;8.50;82.63
77325;BME280;66387;53.440;10.390;2023-05-07T04:20:00;101535.84;;;8.49;82.80
77325;BME280;66387;53.440;10.390;2023-05-07T04:22:26;101541.00;;;8.49;83.30
77325;BME280;66387;53.440;10.390;2023-05-07T04:24:51;101543.59;;;8.49;83.23
77325;BME280;66387;53.440;10.390;2023-05-07T04:27:16;101549.69;;;8.57;82.60
77325;BME280;66387;53.440;10.390;2023-05-07T04:29:41;101555.75;;;8.56;83.28
77325;BME280;66387;53.440;10.390;2023-05-07T04:32:08;101545.31;;;8.50;83.31
77325;BME280;66387;53.440;10.390;2023-05-07T04:34:34;101528.81;;;8.38;83.53
77325;BME280;66387;53.440;10.390;2023-05-07T04:36:59;101545.31;;;8.50;83.47
77325;BME280;66387;53.440;10.390;2023-05-07T04:39:24;101552.19;;;8.45;83.86
77325;BME280;66387;53.440;10.390;2023-05-07T04:41:50;101551.31;;;8.46;83.61
77325;BME280;66387;53.440;10.390;2023-05-07T04:44:15;101549.63;;;8.48;84.08
77325;BME280;66387;53.440;10.390;2023-05-07T04:46:40;101548.66;;;8.40;83.67
77325;BME280;66387;53.440;10.390;2023-05-07T04:49:05;101540.91;;;8.43;83.55
77325;BME280;66387;53.440;10.390;2023-05-07T04:51:31;101548.78;;;8.49;84.46
77325;BME280;66387;53.440;10.390;2023-05-07T04:53:57;101557.44;;;8.54;83.95
77325;BME280;66387;53.440;10.390;2023-05-07T04:56:23;101561.72;;;8.53;84.19
77325;BME280;66387;53.440;10.390;2023-05-07T04:58:48;101552.19;;;8.45;84.14
77325;BME280;66387;53.440;10.390;2023-05-07T05:01:13;101570.41;;;8.60;83.87
77325;BME280;66387;53.440;10.390;2023-05-07T05:03:38;101567.88;;;8.63;84.53
77325;BME280;66387;53.440;10.390;2023-05-07T05:06:04;101573.06;;;8.63;84.26
77325;BME280;66387;53.440;10.390;2023-05-07T05:08:30;101573.00;;;8.58;83.82
77325;BME280;66387;53.440;10.390;2023-05-07T05:10:56;101581.69;;;8.62;83.97
77325;BME280;66387;53.440;10.390;2023-05-07T05:13:21;101579.06;;;8.59;83.76
77325;BME280;66387;53.440;10.390;2023-05-07T05:15:46;101581.72;;;8.68;83.45
77325;BME280;66387;53.440;10.390;2023-05-07T05:18:11;101588.66;;;8.69;83.71
77325;BME280;66387;53.440;10.390;2023-05-07T05:20:37;101588.69;;;8.70;83.32
77325;BME280;66387;53.440;10.390;2023-05-07T05:23:02;101591.22;;;8.69;83.22
77325;BME280;66387;53.440;10.390;2023-05-07T05:25:27;101581.81;;;8.74;83.26
77325;BME280;66387;53.440;10.390;2023-05-07T05:27:53;101582.63;;;8.70;83.50
77325;BME280;66387;53.440;10.390;2023-05-07T05:30:18;101579.22;;;8.74;83.16
77325;BME280;66387;53.440;10.390;2023-05-07T05:32:44;101583.63;;;8.84;82.84
77325;BME280;66387;53.440;10.390;2023-05-07T05:35:09;101580.19;;;8.85;82.98
77325;BME280;66387;53.440;10.390;2023-05-07T05:37:34;101585.38;;;8.85;82.60
77325;BME280;66387;53.440;10.390;2023-05-07T05:39:59;101582.81;;;8.91;82.55
77325;BME280;66387;53.440;10.390;2023-05-07T05:42:25;101578.50;;;8.93;82.87
77325;BME280;66387;53.440;10.390;2023-05-07T05:44:50;101578.56;;;8.98;82.76
77325;BME280;66387;53.440;10.390;2023-05-07T05:47:15;101590.59;;;8.91;82.42
77325;BME280;66387;53.440;10.390;2023-05-07T05:49:41;101579.31;;;8.86;82.80
77325;BME280;66387;53.440;10.390;2023-05-07T05:52:08;101585.38;;;8.90;82.54
77325;BME280;66387;53.440;10.390;2023-05-07T05:54:33;101593.19;;;8.91;82.94
77325;BME280;66387;53.440;10.390;2023-05-07T05:56:59;101578.50;;;8.89;82.29
77325;BME280;66387;53.440;10.390;2023-05-07T05:59:24;101580.22;;;8.93;82.88
77325;BME280;66387;53.440;10.390;2023-05-07T06:01:49;101587.97;;;8.85;82.38
77325;BME280;66387;53.440;10.390;2023-05-07T06:04:15;101591.41;;;8.87;82.02
77325;BME280;66387;53.440;10.390;2023-05-07T06:06:41;101599.28;;;8.98;82.58
77325;BME280;66387;53.440;10.390;2023-05-07T06:09:06;101588.91;;;8.98;82.28
77325;BME280;66387;53.440;10.390;2023-05-07T06:11:31;101600.19;;;9.04;81.87
77325;BME280;66387;53.440;10.390;2023-05-07T06:13:57;101605.34;;;9.01;82.19
77325;BME280;66387;53.440;10.390;2023-05-07T06:16:24;101606.19;;;9.00;82.14
77325;BME280;66387;53.440;10.390;2023-05-07T06:18:49;101607.06;;;8.99;82.19
77325;BME280;66387;53.440;10.390;2023-05-07T06:21:15;101603.50;;;8.88;82.17
77325;BME280;66387;53.440;10.390;2023-05-07T06:23:40;101611.28;;;8.88;82.67
77325;BME280;66387;53.440;10.390;2023-05-07T06:26:06;101608.75;;;8.94;82.07
77325;BME280;66387;53.440;10.390;2023-05-07T06:28:31;101611.44;;;9.03;82.83
77325;BME280;66387;53.440;10.390;2023-05-07T06:31:13;101614.03;;;9.06;81.89
77325;BME280;66387;53.440;10.390;2023-05-07T06:33:39;101619.22;;;9.06;81.68
77325;BME280;66387;53.440;10.390;2023-05-07T06:36:05;101615.81;;;9.10;81.53
77325;BME280;66387;53.440;10.390;2023-05-07T06:38:31;101614.94;;;9.10;81.50
77325;BME280;66387;53.440;10.390;2023-05-07T06:40:56;101612.34;;;9.11;81.65
77325;BME280;66387;53.440;10.390;2023-05-07T06:43:22;101606.28;;;9.11;81.61
77325;BME280;66387;53.440;10.390;2023-05-07T06:45:47;101616.69;;;9.15;81.07
77325;BME280;66387;53.440;10.390;2023-05-07T06:48:13;101600.34;;;9.18;80.84
77325;BME280;66387;53.440;10.390;2023-05-07T06:50:38;101610.69;;;9.19;81.27
77325;BME280;66387;53.440;10.390;2023-05-07T06:53:03;101612.44;;;9.20;81.53
77325;BME280;66387;53.440;10.390;2023-05-07T06:55:28;101610.78;;;9.28;80.46
77325;BME280;66387;53.440;10.390;2023-05-07T06:57:54;101608.09;;;9.19;81.20
77325;BME280;66387;53.440;10.390;2023-05-07T07:00:19;101616.72;;;9.18;81.30
77325;BME280;66387;53.440;10.390;2023-05-07T07:02:45;101627.16;;;9.24;81.23
77325;BME280;66387;53.440;10.390;2023-05-07T07:05:10;101621.09;;;9.25;81.11
77325;BME280;66387;53.440;10.390;2023-05-07T07:07:35;101624.59;;;9.27;80.76
77325;BME280;66387;53.440;10.390;2023-05-07T07:10:01;101613.25;;;9.16;80.26
77325;BME280;66387;53.440;10.390;2023-05-07T07:12:27;101625.50;;;9.34;80.46
77325;BME280;66387;53.440;10.390;2023-05-07T07:14:53;101620.34;;;9.39;79.99
77325;BME280;66387;53.440;10.390;2023-05-07T07:17:19;101628.97;;;9.38;81.01
77325;BME280;66387;53.440;10.390;2023-05-07T07:19:44;101617.75;;;9.37;80.92
77325;BME280;66387;53.440;10.390;2023-05-07T07:22:09;101614.38;;;9.46;80.08
77325;BME280;66387;53.440;10.390;2023-05-07T07:24:35;101617.78;;;9.42;79.49
77325;BME280;66387;53.440;10.390;2023-05-07T07:27:00;101628.22;;;9.49;79.82
77325;BME280;66387;53.440;10.390;2023-05-07T07:29:25;101625.53;;;9.40;79.46
77325;BME280;66387;53.440;10.390;2023-05-07T07:31:51;101620.28;;;9.31;80.63
77325;BME280;66387;53.440;10.390;2023-05-07T07:34:17;101623.84;;;9.42;80.26
77325;BME280;66387;53.440;10.390;2023-05-07T07:36:42;101630.78;;;9.43;80.15
77325;BME280;66387;53.440;10.390;2023-05-07T07:39:07;101625.53;;;9.39;80.55
77325;BME280;66387;53.440;10.390;2023-05-07T07:41:32;101627.28;;;9.44;80.03
77325;BME280;66387;53.440;10.390;2023-05-07T07:43:58;101618.72;;;9.50;80.42
77325;BME280;66387;53.440;10.390;2023-05-07T07:46:23;101623.94;;;9.54;80.51
77325;BME280;66387;53.440;10.390;2023-05-07T07:48:48;101624.81;;;9.58;79.51
77325;BME280;66387;53.440;10.390;2023-05-07T07:51:14;101628.28;;;9.57;79.60
77325;BME280;66387;53.440;10.390;2023-05-07T07:53:39;101634.31;;;9.59;80.17
77325;BME280;66387;53.440;10.390;2023-05-07T07:56:06;101635.19;;;9.58;79.21
77325;BME280;66387;53.440;10.390;2023-05-07T07:58:31;101628.25;;;9.54;79.07
77325;BME280;66387;53.440;10.390;2023-05-07T08:00:56;101630.88;;;9.60;79.96
77325;BME280;66387;53.440;10.390;2023-05-07T08:03:21;101632.56;;;9.53;79.38
77325;BME280;66387;53.440;10.390;2023-05-07T08:05:47;101636.94;;;9.62;79.96
77325;BME280;66387;53.440;10.390;2023-05-07T08:08:14;101638.72;;;9.69;79.22
77325;BME280;66387;53.440;10.390;2023-05-07T08:10:40;101638.75;;;9.72;79.61
77325;BME280;66387;53.440;10.390;2023-05-07T08:13:05;101622.28;;;9.67;78.31
77325;BME280;66387;53.440;10.390;2023-05-07T08:15:31;101634.47;;;9.78;78.04
77325;BME280;66387;53.440;10.390;2023-05-07T08:17:57;101636.22;;;9.84;77.73
77325;BME280;66387;53.440;10.390;2023-05-07T08:20:25;101637.16;;;9.91;77.71
77325;BME280;66387;53.440;10.390;2023-05-07T08:22:51;101647.53;;;9.98;77.23
77325;BME280;66387;53.440;10.390;2023-05-07T08:25:16;101646.66;;;9.95;77.34
77325;BME280;66387;53.440;10.390;2023-05-07T08:27:41;101658.84;;;10.05;77.61
77325;BME280;66387;53.440;10.390;2023-05-07T08:30:07;101651.03;;;10.03;76.87
77325;BME280;66387;53.440;10.390;2023-05-07T08:32:32;101650.13;;;9.98;77.76
77325;BME280;66387;53.440;10.390;2023-05-07T08:34:58;101646.66;;;9.93;77.79
77325;BME280;66387;53.440;10.390;2023-05-07T08:37:23;101646.66;;;9.90;77.70
77325;BME280;66387;53.440;10.390;2023-05-07T08:39:48;101644.88;;;9.86;76.99
77325;BME280;66387;53.440;10.390;2023-05-07T08:42:16;101648.34;;;9.83;78.49
77325;BME280;66387;53.440;10.390;2023-05-07T08:44:45;101654.44;;;9.90;77.57
77325;BME280;66387;53.440;10.390;2023-05-07T08:47:12;101657.97;;;10.06;77.60
77325;BME280;66387;53.440;10.390;2023-05-07T08:49:38;101659.81;;;10.22;77.28
77325;BME280;66387;53.440;10.390;2023-05-07T08:52:03;101657.06;;;9.98;76.75
77325;BME280;66387;53.440;10.390;2023-05-07T08:54:28;101663.19;;;10.10;77.04
77325;BME280;66387;53.440;10.390;2023-05-07T08:56:54;101659.84;;;10.23;77.19
77325;BME280;66387;53.440;10.390;2023-05-07T08:59:19;101665.06;;;10.32;76.45
77325;BME280;66387;53.440;10.390;2023-05-07T09:01:45;101661.63;;;10.33;76.04
77325;BME280;66387;53.440;10.390;2023-05-07T09:04:10;101669.50;;;10.56;76.37
77325;BME280;66387;53.440;10.390;2023-05-07T09:06:37;101662.56;;;10.52;75.55
77325;BME280;66387;53.440;10.390;2023-05-07T09:09:06;101668.63;;;10.56;75.53
77325;BME280;66387;53.440;10.390;2023-05-07T09:11:31;101668.56;;;10.38;75.82
77325;BME280;66387;53.440;10.390;2023-05-07T09:13:57;101672.03;;;10.38;75.81
77325;BME280;66387;53.440;10.390;2023-05-07T09:16:25;101666.81;;;10.37;75.92
77325;BME280;66387;53.440;10.390;2023-05-07T09:18:52;101679.84;;;10.49;75.17
77325;BME280;66387;53.440;10.390;2023-05-07T09:21:19;101685.00;;;10.41;75.75
77325;BME280;66387;53.440;10.390;2023-05-07T09:23:44;101678.09;;;10.46;75.33
77325;BME280;66387;53.440;10.390;2023-05-07T09:26:10;101687.66;;;10.55;75.16
77325;BME280;66387;53.440;10.390;2023-05-07T09:28:40;101687.72;;;10.73;74.49
77325;BME280;66387;53.440;10.390;2023-05-07T09:31:10;101679.06;;;10.75;74.63
77325;BME280;66387;53.440;10.390;2023-05-07T09:33:35;101686.88;;;10.74;74.85
77325;BME280;66387;53.440;10.390;2023-05-07T09:36:08;101679.94;;;10.73;74.36
77325;BME280;66387;53.440;10.390;2023-05-07T09:38:35;101690.31;;;10.67;73.97
77325;BME280;66387;53.440;10.390;2023-05-07T09:41:02;101688.53;;;10.52;74.76
77325;BME280;66387;53.440;10.390;2023-05-07T09:43:31;101688.56;;;10.69;74.51
77325;BME280;66387;53.440;10.390;2023-05-07T09:45:58;101690.31;;;10.76;74.29
77325;BME280;66387;53.440;10.390;2023-05-07T09:48:25;101676.50;;;10.86;74.55
77325;BME280;66387;53.440;10.390;2023-05-07T09:50:51;101686.06;;;11.02;73.45
77325;BME280;66387;53.440;10.390;2023-05-07T09:53:22;101695.56;;;10.87;74.53
77325;BME280;66387;53.440;10.390;2023-05-07T09:55:48;101686.03;;;10.78;73.86
77325;BME280;66387;53.440;10.390;2023-05-07T09:58:14;101690.31;;;10.71;73.80
77325;BME280;66387;53.440;10.390;2023-05-07T10:00:40;101690.34;;;10.80;75.06
77325;BME280;66387;53.440;10.390;2023-05-07T10:03:08;101696.38;;;10.72;74.43
77325;BME280;66387;53.440;10.390;2023-05-07T10:05:34;101697.19;;;10.56;74.98
77325;BME280;66387;53.440;10.390;2023-05-07T10:08:00;101692.03;;;10.66;74.45
77325;BME280;66387;53.440;10.390;2023-05-07T10:10:27;101694.66;;;10.75;74.41
77325;BME280;66387;53.440;10.390;2023-05-07T10:12:52;101692.97;;;10.90;73.43
77325;BME280;66387;53.440;10.390;2023-05-07T10:15:19;101699.97;;;11.10;72.77
77325;BME280;66387;53.440;10.390;2023-05-07T10:17:44;101699.97;;;11.19;72.55
77325;BME280;66387;53.440;10.390;2023-05-07T10:20:10;101697.34;;;11.13;72.01
77325;BME280;66387;53.440;10.390;2023-05-07T10:22:44;101701.72;;;11.36;72.47
77325;BME280;66387;53.440;10.390;2023-05-07T10:25:31;101690.41;;;11.15;72.27
77325;BME280;66387;53.440;10.390;2023-05-07T10:27:57;101692.19;;;11.50;72.42
77325;BME280;66387;53.440;10.390;2023-05-07T10:31:18;101689.59;;;11.53;71.39
77325;BME280;66387;53.440;10.390;2023-05-07T10:33:23;101696.53;;;11.51;71.48
77325;BME280;66387;53.440;10.390;2023-05-07T10:35:49;101683.53;;;11.67;70.41
77325;BME280;66387;53.440;10.390;2023-05-07T10:38:14;101685.25;;;12.02;69.80
77325;BME280;66387;53.440;10.390;2023-05-07T10:40:40;101697.41;;;11.91;70.07
77325;BME280;66387;53.440;10.390;2023-05-07T10:43:05;101695.59;;;12.17;69.77
77325;BME280;66387;53.440;10.390;2023-05-07T10:45:31;101691.31;;;12.04;69.21
77325;BME280;66387;53.440;10.390;2023-05-07T10:48:16;101692.19;;;12.07;69.39
77325;BME280;66387;53.440;10.390;2023-05-07T10:50:43;101686.00;;;12.45;67.87
77325;BME280;66387;53.440;10.390;2023-05-07T10:55:47;101682.44;;;12.67;65.70
77325;BME280;66387;53.440;10.390;2023-05-07T10:58:27;101684.81;;;13.09;65.48
77325;BME280;66387;53.440;10.390;2023-05-07T11:00:57;101679.34;;;13.46;63.67
77325;BME280;66387;53.440;10.390;2023-05-07T11:03:22;101682.13;;;13.24;64.16
77325;BME280;66387;53.440;10.390;2023-05-07T11:06:08;101682.16;;;13.21;64.66
77325;BME280;66387;53.440;10.390;2023-05-07T11:08:53;101675.03;;;13.43;64.68
77325;BME280;66387;53.440;10.390;2023-05-07T11:11:19;101677.28;;;13.81;64.47
77325;BME280;66387;53.440;10.390;2023-05-07T11:13:48;101679.59;;;14.10;63.09
77325;BME280;66387;53.440;10.390;2023-05-07T11:16:24;101680.94;;;13.63;62.92
77325;BME280;66387;53.440;10.390;2023-05-07T11:18:54;101685.63;;;13.19;63.21
77325;BME280;66387;53.440;10.390;2023-05-07T11:21:33;101687.25;;;13.34;64.46
77325;BME280;66387;53.440;10.390;2023-05-07T11:23:58;101691.34;;;13.66;64.21
77325;BME280;66387;53.440;10.390;2023-05-07T11:26:24;101677.56;;;13.52;62.97
77325;BME280;66387;53.440;10.390;2023-05-07T11:28:51;101677.03;;;14.08;62.27
77325;BME280;66387;53.440;10.390;2023-05-07T11:31:21;101677.25;;;14.66;62.10
77325;BME280;66387;53.440;10.390;2023-05-07T11:33:47;101679.06;;;14.60;60.64
77325;BME280;66387;53.440;10.390;2023-05-07T11:36:13;101677.66;;;14.32;60.58
77325;BME280;66387;53.440;10.390;2023-05-07T11:38:38;101670.28;;;14.67;60.90
77325;BME280;66387;53.440;10.390;2023-05-07T11:41:04;101675.50;;;14.67;59.99
77325;BME280;66387;53.440;10.390;2023-05-07T11:43:32;101676.16;;;14.81;59.17
77325;BME280;66387;53.440;10.390;2023-05-07T11:46:10;101680.34;;;14.94;58.98
77325;BME280;66387;53.440;10.390;2023-05-07T11:48:36;101679.34;;;15.04;57.93
77325;BME280;66387;53.440;10.390;2023-05-07T11:51:03;101680.25;;;15.00;58.29
77325;BME280;66387;53.440;10.390;2023-05-07T11:53:38;101667.66;;;14.67;58.15
77325;BME280;66387;53.440;10.390;2023-05-07T11:56:08;101669.75;;;15.03;57.91
77325;BME280;66387;53.440;10.390;2023-05-07T11:58:34;101673.16;;;15.08;58.11
77325;BME280;66387;53.440;10.390;2023-05-07T12:00:59;101658.13;;;15.23;57.73
77325;BME280;66387;53.440;10.390;2023-05-07T12:03:24;101662.22;;;15.39;58.27
77325;BME280;66387;53.440;10.390;2023-05-07T12:05:50;101658.25;;;15.70;57.94
77325;BME280;66387;53.440;10.390;2023-05-07T12:08:19;101651.41;;;16.52;55.85
77325;BME280;66387;53.440;10.390;2023-05-07T12:10:49;101616.47;;;16.91;54.64
77325;BME280;66387;53.440;10.390;2023-05-07T12:13:20;101645.84;;;17.05;53.79
77325;BME280;66387;53.440;10.390;2023-05-07T12:15:52;101646.38;;;17.20;53.78
77325;BME280;66387;53.440;10.390;2023-05-07T12:18:17;101656.50;;;16.99;52.77
77325;BME280;66387;53.440;10.390;2023-05-07T12:20:43;101652.22;;;16.95;52.63
77325;BME280;66387;53.440;10.390;2023-05-07T12:23:09;101655.00;;;16.88;52.05
77325;BME280;66387;53.440;10.390;2023-05-07T12:25:42;101656.13;;;16.76;53.12
77325;BME280;66387;53.440;10.390;2023-05-07T12:28:14;101657.84;;;16.79;52.22
77325;BME280;66387;53.440;10.390;2023-05-07T12:30:42;101655.88;;;16.88;52.93
77325;BME280;66387;53.440;10.390;2023-05-07T12:33:07;101652.22;;;16.57;52.98
77325;BME280;66387;53.440;10.390;2023-05-07T12:35:39;101657.53;;;16.51;52.33
77325;BME280;66387;53.440;10.390;2023-05-07T12:38:10;101650.47;;;16.54;53.06
77325;BME280;66387;53.440;10.390;2023-05-07T12:40:40;101647.19;;;16.43;52.89
77325;BME280;66387;53.440;10.390;2023-05-07T12:43:06;101663.69;;;16.50;52.04
77325;BME280;66387;53.440;10.390;2023-05-07T12:45:37;101657.84;;;16.36;52.80
77325;BME280;66387;53.440;10.390;2023-05-07T12:48:04;101663.84;;;16.42;53.24